Sumifukumaru No.5 — JD3058 — position and weather

sailwx.info

Track history (hours):
 
Tides and Currents Weather Stations Pressure Air Temp Water Temp Dewpoint Dewpoint Depression Visibility Wind Speed Wind Dir Waves Ship Positions

Sumifukumaru No.5

Last reported at 2017-Sep-21 09:27 UTC. Time now 2017-Sep-22 13:40 UTC.
Position N 34°52' E 139°48'.

Length 75 m; draft 4.4 m.

Type: Cargo ship. MMSI: 431001371.

Date/timePositionNaut miles runAvg speedWind from/ knotsBaromVisibWave heightAir tempDewpointWater temp
2017-Sep-21 09:27N 34°52' E 139°48'714.7
2017-Sep-21 09:00N 34°57' E 139°43'612.4
2017-Sep-21 08:30N 35°03' E 139°44'612.2
2017-Sep-21 08:00N 35°09' E 139°45'612.5
2017-Sep-21 07:31N 35°15' E 139°46'612.1
2017-Sep-21 07:00N 35°20' E 139°42'510.1
2017-Sep-21 06:30N 35°25' E 139°41'0 0.0
2017-Sep-21 05:58N 35°25' E 139°41'0 0.0
2017-Sep-21 05:28N 35°25' E 139°41'0 0.0
2017-Sep-21 04:58N 35°25' E 139°41'0 0.0
2017-Sep-21 04:28N 35°25' E 139°41'0 0.0
2017-Sep-21 03:58N 35°25' E 139°41'0 0.0
2017-Sep-21 03:28N 35°25' E 139°41'0 0.0
2017-Sep-21 02:58N 35°25' E 139°41'0 0.0
2017-Sep-21 02:28N 35°25' E 139°41'0 0.0
2017-Sep-21 01:58N 35°25' E 139°41'0 0.0
2017-Sep-21 01:28N 35°25' E 139°41'0 0.0
2017-Sep-21 01:01N 35°25' E 139°41'1 1.1
2017-Sep-21 00:28N 35°25' E 139°41'0 0.0
2017-Sep-20 23:58N 35°25' E 139°41'0 0.0
2017-Sep-20 23:28N 35°25' E 139°41'0 0.1
2017-Sep-20 22:58N 35°25' E 139°41'0 0.0
2017-Sep-20 22:28N 35°25' E 139°41'0 0.1
2017-Sep-20 21:58N 35°25' E 139°41'0 0.0
2017-Sep-20 21:28N 35°25' E 139°41'2 3.3
2017-Sep-20 21:00N 35°26' E 139°43'611.8
2017-Sep-20 20:30N 35°29' E 139°49'13 1.8
2017-Sep-20 13:15N 35°40' E 139°57'5 0.5
2017-Sep-20 03:45N 35°35' E 139°56'312.1
2017-Sep-20 03:30N 35°33' E 139°54'612.0
2017-Sep-20 03:00N 35°28' E 139°50'611.6
2017-Sep-20 02:30N 35°23' E 139°46'511.0
2017-Sep-20 02:00N 35°18' E 139°45'510.7
2017-Sep-20 01:30N 35°12' E 139°47'611.2
2017-Sep-20 01:00N 35°07' E 139°45'611.5
2017-Sep-20 00:28N 35°02' E 139°40'23710.4
2017-Sep-19 01:42N 34°02' E 135°02'312.2
2017-Sep-19 01:29N 34°04' E 135°02'611.5
2017-Sep-19 01:00N 34°10' E 135°02'1411.5
2017-Sep-18 23:45N 34°24' E 135°08'311.4
2017-Sep-18 23:30N 34°26' E 135°10'611.7
2017-Sep-18 23:01N 34°30' E 135°15'711.7
2017-Sep-18 22:23N 34°36' E 135°21'410.2
2017-Sep-18 22:00N 34°35' E 135°26'1 0.0
2017-Sep-16 21:42N 34°35' E 135°27'0 0.3
2017-Sep-16 21:30N 34°35' E 135°27'1 2.6
2017-Sep-16 20:58N 34°34' E 135°27'0 0.0
2017-Sep-16 10:30N 34°34' E 135°27'1 1.3
2017-Sep-16 09:59N 34°35' E 135°27'0 0.0
2017-Sep-15 23:09N 34°35' E 135°27'110.0
2017-Sep-15 23:00N 34°36' E 135°25'611.4
2017-Sep-15 22:30N 34°36' E 135°18'611.6
2017-Sep-15 22:00N 34°35' E 135°11'611.8
2017-Sep-15 21:30N 34°35' E 135°04'710.9
2017-Sep-15 20:52N 34°36' E 134°56'2 0.1
2017-Sep-14 22:29N 34°37' E 134°54'610.1
2017-Sep-14 21:55N 34°37' E 135°01'410.7
2017-Sep-14 21:30N 34°35' E 135°05'611.5
2017-Sep-14 21:00N 34°29' E 135°04'  
Track history (hours):
 
Tides and Currents Weather Stations Pressure Air Temp Water Temp Dewpoint Dewpoint Depression Visibility Wind Speed Wind Dir Waves Ship Positions

Sumifukumaru No.5

Last reported at 2017-Sep-21 09:27 UTC. Time now 2017-Sep-22 13:40 UTC.
Position N 34°52' E 139°48'.

Length 75 m; draft 4.4 m.

Type: Cargo ship. MMSI: 431001371.

Date/timePositionNaut miles runAvg speedWind from/ knotsBaromVisibWave heightAir tempDewpointWater temp
2017-Sep-21 09:27N 34°52' E 139°48'714.7
2017-Sep-21 09:00N 34°57' E 139°43'612.4
2017-Sep-21 08:30N 35°03' E 139°44'612.2
2017-Sep-21 08:00N 35°09' E 139°45'612.5
2017-Sep-21 07:31N 35°15' E 139°46'612.1
2017-Sep-21 07:00N 35°20' E 139°42'510.1
2017-Sep-21 06:30N 35°25' E 139°41'0 0.0
2017-Sep-21 05:58N 35°25' E 139°41'0 0.0
2017-Sep-21 05:28N 35°25' E 139°41'0 0.0
2017-Sep-21 04:58N 35°25' E 139°41'0 0.0
2017-Sep-21 04:28N 35°25' E 139°41'0 0.0
2017-Sep-21 03:58N 35°25' E 139°41'0 0.0
2017-Sep-21 03:28N 35°25' E 139°41'0 0.0
2017-Sep-21 02:58N 35°25' E 139°41'0 0.0
2017-Sep-21 02:28N 35°25' E 139°41'0 0.0
2017-Sep-21 01:58N 35°25' E 139°41'0 0.0
2017-Sep-21 01:28N 35°25' E 139°41'0 0.0
2017-Sep-21 01:01N 35°25' E 139°41'1 1.1
2017-Sep-21 00:28N 35°25' E 139°41'0 0.0
2017-Sep-20 23:58N 35°25' E 139°41'0 0.0
2017-Sep-20 23:28N 35°25' E 139°41'0 0.1
2017-Sep-20 22:58N 35°25' E 139°41'0 0.0
2017-Sep-20 22:28N 35°25' E 139°41'0 0.1
2017-Sep-20 21:58N 35°25' E 139°41'0 0.0
2017-Sep-20 21:28N 35°25' E 139°41'2 3.3
2017-Sep-20 21:00N 35°26' E 139°43'611.8
2017-Sep-20 20:30N 35°29' E 139°49'13 1.8
2017-Sep-20 13:15N 35°40' E 139°57'5 0.5
2017-Sep-20 03:45N 35°35' E 139°56'312.1
2017-Sep-20 03:30N 35°33' E 139°54'612.0
2017-Sep-20 03:00N 35°28' E 139°50'611.6
2017-Sep-20 02:30N 35°23' E 139°46'511.0
2017-Sep-20 02:00N 35°18' E 139°45'510.7
2017-Sep-20 01:30N 35°12' E 139°47'611.2
2017-Sep-20 01:00N 35°07' E 139°45'611.5
2017-Sep-20 00:28N 35°02' E 139°40'23710.4
2017-Sep-19 01:42N 34°02' E 135°02'312.2
2017-Sep-19 01:29N 34°04' E 135°02'611.5
2017-Sep-19 01:00N 34°10' E 135°02'1411.5
2017-Sep-18 23:45N 34°24' E 135°08'311.4
2017-Sep-18 23:30N 34°26' E 135°10'611.7
2017-Sep-18 23:01N 34°30' E 135°15'711.7
2017-Sep-18 22:23N 34°36' E 135°21'410.2
2017-Sep-18 22:00N 34°35' E 135°26'1 0.0
2017-Sep-16 21:42N 34°35' E 135°27'0 0.3
2017-Sep-16 21:30N 34°35' E 135°27'1 2.6
2017-Sep-16 20:58N 34°34' E 135°27'0 0.0
2017-Sep-16 10:30N 34°34' E 135°27'1 1.3
2017-Sep-16 09:59N 34°35' E 135°27'0 0.0
2017-Sep-15 23:09N 34°35' E 135°27'110.0
2017-Sep-15 23:00N 34°36' E 135°25'611.4
2017-Sep-15 22:30N 34°36' E 135°18'611.6
2017-Sep-15 22:00N 34°35' E 135°11'611.8
2017-Sep-15 21:30N 34°35' E 135°04'710.9
2017-Sep-15 20:52N 34°36' E 134°56'2 0.1
2017-Sep-14 22:29N 34°37' E 134°54'610.1
2017-Sep-14 21:55N 34°37' E 135°01'410.7
2017-Sep-14 21:30N 34°35' E 135°05'611.5
2017-Sep-14 21:00N 34°29' E 135°04'  

Dump ship's entire track history